sensor_id;sensor_type;location;lat;lon;timestamp;pressure;altitude;pressure_sealevel;temperature;humidity
75089;BME280;63673;49.928;8.150;2022-11-20T00:00:10;986.82;;;0.29;100
75089;BME280;63673;49.928;8.150;2022-11-20T00:01:12;986.83;;;0.28;100
75089;BME280;63673;49.928;8.150;2022-11-20T00:02:13;986.82;;;0.28;100
75089;BME280;63673;49.928;8.150;2022-11-20T00:03:15;986.78;;;0.28;100
75089;BME280;63673;49.928;8.150;2022-11-20T00:04:16;986.81;;;0.27;100
75089;BME280;63673;49.928;8.150;2022-11-20T00:05:18;986.85;;;0.27;100
75089;BME280;63673;49.928;8.150;2022-11-20T00:06:20;986.81;;;0.27;100
75089;BME280;63673;49.928;8.150;2022-11-20T00:07:22;986.87;;;0.27;100
75089;BME280;63673;49.928;8.150;2022-11-20T00:08:23;986.85;;;0.27;100
75089;BME280;63673;49.928;8.150;2022-11-20T00:09:25;986.82;;;0.27;100
75089;BME280;63673;49.928;8.150;2022-11-20T00:10:27;986.85;;;0.27;100
75089;BME280;63673;49.928;8.150;2022-11-20T00:11:29;986.84;;;0.27;100
75089;BME280;63673;49.928;8.150;2022-11-20T00:12:30;986.89;;;0.27;100
75089;BME280;63673;49.928;8.150;2022-11-20T00:13:32;986.83;;;0.27;100
75089;BME280;63673;49.928;8.150;2022-11-20T00:14:34;986.85;;;0.28;100
75089;BME280;63673;49.928;8.150;2022-11-20T00:15:36;986.83;;;0.28;100
75089;BME280;63673;49.928;8.150;2022-11-20T00:16:37;986.82;;;0.29;100
75089;BME280;63673;49.928;8.150;2022-11-20T00:17:39;986.83;;;0.28;100
75089;BME280;63673;49.928;8.150;2022-11-20T00:18:41;986.84;;;0.28;100
75089;BME280;63673;49.928;8.150;2022-11-20T00:19:42;986.84;;;0.29;100
75089;BME280;63673;49.928;8.150;2022-11-20T00:20:44;986.77;;;0.3;100
75089;BME280;63673;49.928;8.150;2022-11-20T00:21:46;986.76;;;0.3;100
75089;BME280;63673;49.928;8.150;2022-11-20T00:22:48;986.83;;;0.3;100
75089;BME280;63673;49.928;8.150;2022-11-20T00:23:50;986.77;;;0.3;100
75089;BME280;63673;49.928;8.150;2022-11-20T00:24:51;986.81;;;0.3;100
75089;BME280;63673;49.928;8.150;2022-11-20T00:25:53;986.84;;;0.3;100
75089;BME280;63673;49.928;8.150;2022-11-20T00:26:55;986.85;;;0.3;100
75089;BME280;63673;49.928;8.150;2022-11-20T00:27:56;986.81;;;0.31;100
75089;BME280;63673;49.928;8.150;2022-11-20T00:28:59;986.81;;;0.32;100
75089;BME280;63673;49.928;8.150;2022-11-20T00:30:00;986.88;;;0.32;100
75089;BME280;63673;49.928;8.150;2022-11-20T00:31:02;986.83;;;0.33;100
75089;BME280;63673;49.928;8.150;2022-11-20T00:32:03;986.88;;;0.34;100
75089;BME280;63673;49.928;8.150;2022-11-20T00:33:05;986.65;;;0.34;100
75089;BME280;63673;49.928;8.150;2022-11-20T00:34:07;986.84;;;0.34;100
75089;BME280;63673;49.928;8.150;2022-11-20T00:35:08;986.83;;;0.34;100
75089;BME280;63673;49.928;8.150;2022-11-20T00:36:11;986.77;;;0.36;100
75089;BME280;63673;49.928;8.150;2022-11-20T00:37:12;986.79;;;0.35;100
75089;BME280;63673;49.928;8.150;2022-11-20T00:38:14;986.74;;;0.36;100
75089;BME280;63673;49.928;8.150;2022-11-20T00:39:15;986.77;;;0.37;100
75089;BME280;63673;49.928;8.150;2022-11-20T00:40:17;986.71;;;0.37;100
75089;BME280;63673;49.928;8.150;2022-11-20T00:41:19;986.77;;;0.36;100
75089;BME280;63673;49.928;8.150;2022-11-20T00:42:21;986.82;;;0.35;100
75089;BME280;63673;49.928;8.150;2022-11-20T00:43:22;986.82;;;0.36;100
75089;BME280;63673;49.928;8.150;2022-11-20T00:47:04;986.72;;;0.37;100
75089;BME280;63673;49.928;8.150;2022-11-20T00:48:06;986.62;;;0.38;100
75089;BME280;63673;49.928;8.150;2022-11-20T00:49:07;986.57;;;0.37;100
75089;BME280;63673;49.928;8.150;2022-11-20T00:50:09;986.63;;;0.38;100
75089;BME280;63673;49.928;8.150;2022-11-20T00:51:12;986.63;;;0.38;100
75089;BME280;63673;49.928;8.150;2022-11-20T00:52:12;986.65;;;0.4;100
75089;BME280;63673;49.928;8.150;2022-11-20T00:53:14;986.66;;;0.39;100
75089;BME280;63673;49.928;8.150;2022-11-20T00:54:16;986.66;;;0.4;100
75089;BME280;63673;49.928;8.150;2022-11-20T00:55:18;986.62;;;0.4;100
75089;BME280;63673;49.928;8.150;2022-11-20T00:56:19;986.61;;;0.4;100
75089;BME280;63673;49.928;8.150;2022-11-20T00:57:21;986.63;;;0.4;100
75089;BME280;63673;49.928;8.150;2022-11-20T00:58:23;986.62;;;0.4;100
75089;BME280;63673;49.928;8.150;2022-11-20T00:59:25;986.7;;;0.4;100
75089;BME280;63673;49.928;8.150;2022-11-20T01:00:26;986.65;;;0.42;100
75089;BME280;63673;49.928;8.150;2022-11-20T01:01:28;986.7;;;0.42;100
75089;BME280;63673;49.928;8.150;2022-11-20T01:02:30;986.66;;;0.43;100
75089;BME280;63673;49.928;8.150;2022-11-20T01:03:32;986.65;;;0.43;100
75089;BME280;63673;49.928;8.150;2022-11-20T01:04:33;986.73;;;0.44;100
75089;BME280;63673;49.928;8.150;2022-11-20T01:05:35;986.76;;;0.44;100
75089;BME280;63673;49.928;8.150;2022-11-20T01:06:37;986.8;;;0.44;100
75089;BME280;63673;49.928;8.150;2022-11-20T01:07:38;986.78;;;0.46;100
75089;BME280;63673;49.928;8.150;2022-11-20T01:08:40;986.76;;;0.46;100
75089;BME280;63673;49.928;8.150;2022-11-20T01:09:42;986.76;;;0.47;100
75089;BME280;63673;49.928;8.150;2022-11-20T01:10:44;986.71;;;0.48;100
75089;BME280;63673;49.928;8.150;2022-11-20T01:11:45;986.76;;;0.49;100
75089;BME280;63673;49.928;8.150;2022-11-20T01:12:47;986.8;;;0.49;100
75089;BME280;63673;49.928;8.150;2022-11-20T01:13:50;986.85;;;0.51;100
75089;BME280;63673;49.928;8.150;2022-11-20T01:14:51;986.78;;;0.5;100
75089;BME280;63673;49.928;8.150;2022-11-20T01:15:52;986.76;;;0.51;100
75089;BME280;63673;49.928;8.150;2022-11-20T01:16:54;986.73;;;0.51;100
75089;BME280;63673;49.928;8.150;2022-11-20T01:17:56;986.76;;;0.51;100
75089;BME280;63673;49.928;8.150;2022-11-20T01:18:58;986.73;;;0.51;100
75089;BME280;63673;49.928;8.150;2022-11-20T01:19:59;986.68;;;0.52;100
75089;BME280;63673;49.928;8.150;2022-11-20T01:21:01;986.73;;;0.51;100
75089;BME280;63673;49.928;8.150;2022-11-20T01:22:03;986.74;;;0.5;100
75089;BME280;63673;49.928;8.150;2022-11-20T01:23:04;986.71;;;0.51;100
75089;BME280;63673;49.928;8.150;2022-11-20T01:24:07;986.66;;;0.49;100
75089;BME280;63673;49.928;8.150;2022-11-20T01:25:08;986.7;;;0.5;100
75089;BME280;63673;49.928;8.150;2022-11-20T01:26:11;986.73;;;0.49;100
75089;BME280;63673;49.928;8.150;2022-11-20T01:27:11;986.67;;;0.49;100
75089;BME280;63673;49.928;8.150;2022-11-20T01:28:13;986.66;;;0.48;100
75089;BME280;63673;49.928;8.150;2022-11-20T01:29:16;986.62;;;0.48;100
75089;BME280;63673;49.928;8.150;2022-11-20T01:30:17;986.6;;;0.47;100
75089;BME280;63673;49.928;8.150;2022-11-20T01:31:19;986.65;;;0.47;100
75089;BME280;63673;49.928;8.150;2022-11-20T01:32:20;986.56;;;0.46;100
75089;BME280;63673;49.928;8.150;2022-11-20T01:33:22;986.57;;;0.47;100
75089;BME280;63673;49.928;8.150;2022-11-20T01:34:24;986.61;;;0.46;100
75089;BME280;63673;49.928;8.150;2022-11-20T01:35:25;986.64;;;0.47;100
75089;BME280;63673;49.928;8.150;2022-11-20T01:36:28;986.63;;;0.48;100
75089;BME280;63673;49.928;8.150;2022-11-20T01:37:29;986.63;;;0.47;100
75089;BME280;63673;49.928;8.150;2022-11-20T01:38:30;986.55;;;0.48;100
75089;BME280;63673;49.928;8.150;2022-11-20T01:39:32;986.7;;;0.48;100
75089;BME280;63673;49.928;8.150;2022-11-20T01:40:34;986.7;;;0.47;100
75089;BME280;63673;49.928;8.150;2022-11-20T01:41:36;986.71;;;0.48;100
75089;BME280;63673;49.928;8.150;2022-11-20T01:42:37;986.7;;;0.48;100
75089;BME280;63673;49.928;8.150;2022-11-20T01:43:39;986.74;;;0.49;100
75089;BME280;63673;49.928;8.150;2022-11-20T01:44:49;986.64;;;0.49;100
75089;BME280;63673;49.928;8.150;2022-11-20T01:45:54;986.65;;;0.5;100
75089;BME280;63673;49.928;8.150;2022-11-20T01:46:47;986.64;;;0.51;100
75089;BME280;63673;49.928;8.150;2022-11-20T01:47:46;986.62;;;0.51;100
75089;BME280;63673;49.928;8.150;2022-11-20T01:48:49;986.56;;;0.51;100
75089;BME280;63673;49.928;8.150;2022-11-20T01:49:50;986.56;;;0.52;100
75089;BME280;63673;49.928;8.150;2022-11-20T01:50:51;986.58;;;0.53;100
75089;BME280;63673;49.928;8.150;2022-11-20T01:51:54;986.59;;;0.53;100
75089;BME280;63673;49.928;8.150;2022-11-20T01:52:55;986.55;;;0.53;100
75089;BME280;63673;49.928;8.150;2022-11-20T01:53:57;986.56;;;0.55;100
75089;BME280;63673;49.928;8.150;2022-11-20T01:54:59;986.61;;;0.55;100
75089;BME280;63673;49.928;8.150;2022-11-20T01:56:00;986.59;;;0.57;100
75089;BME280;63673;49.928;8.150;2022-11-20T01:57:02;986.49;;;0.56;100
75089;BME280;63673;49.928;8.150;2022-11-20T01:58:03;986.48;;;0.57;100
75089;BME280;63673;49.928;8.150;2022-11-20T01:59:05;986.52;;;0.58;100
75089;BME280;63673;49.928;8.150;2022-11-20T02:00:08;986.45;;;0.58;100
75089;BME280;63673;49.928;8.150;2022-11-20T02:01:09;986.38;;;0.57;100
75089;BME280;63673;49.928;8.150;2022-11-20T02:02:10;986.22;;;0.58;100
75089;BME280;63673;49.928;8.150;2022-11-20T02:03:13;986.42;;;0.57;100
75089;BME280;63673;49.928;8.150;2022-11-20T02:04:14;986.49;;;0.58;100
75089;BME280;63673;49.928;8.150;2022-11-20T02:05:17;986.49;;;0.59;100
75089;BME280;63673;49.928;8.150;2022-11-20T02:06:19;986.49;;;0.59;100
75089;BME280;63673;49.928;8.150;2022-11-20T02:07:19;986.43;;;0.59;100
75089;BME280;63673;49.928;8.150;2022-11-20T02:08:21;986.54;;;0.59;100
75089;BME280;63673;49.928;8.150;2022-11-20T02:09:22;986.54;;;0.61;100
75089;BME280;63673;49.928;8.150;2022-11-20T02:10:24;986.53;;;0.6;100
75089;BME280;63673;49.928;8.150;2022-11-20T02:11:26;986.49;;;0.61;100
75089;BME280;63673;49.928;8.150;2022-11-20T02:12:28;986.51;;;0.61;100
75089;BME280;63673;49.928;8.150;2022-11-20T02:13:29;986.48;;;0.61;100
75089;BME280;63673;49.928;8.150;2022-11-20T02:14:31;986.53;;;0.61;100
75089;BME280;63673;49.928;8.150;2022-11-20T02:15:33;986.47;;;0.61;100
75089;BME280;63673;49.928;8.150;2022-11-20T02:16:35;986.48;;;0.62;100
75089;BME280;63673;49.928;8.150;2022-11-20T02:17:36;986.49;;;0.61;100
75089;BME280;63673;49.928;8.150;2022-11-20T02:18:38;986.48;;;0.61;100
75089;BME280;63673;49.928;8.150;2022-11-20T02:19:40;986.46;;;0.61;100
75089;BME280;63673;49.928;8.150;2022-11-20T02:20:42;986.43;;;0.62;100
75089;BME280;63673;49.928;8.150;2022-11-20T02:21:45;986.38;;;0.61;100
75089;BME280;63673;49.928;8.150;2022-11-20T02:22:47;986.41;;;0.61;100
75089;BME280;63673;49.928;8.150;2022-11-20T02:23:53;986.38;;;0.62;100
75089;BME280;63673;49.928;8.150;2022-11-20T02:24:48;986.42;;;0.6;100
75089;BME280;63673;49.928;8.150;2022-11-20T02:25:50;986.43;;;0.61;100
75089;BME280;63673;49.928;8.150;2022-11-20T02:26:53;986.4;;;0.6;100
75089;BME280;63673;49.928;8.150;2022-11-20T02:27:54;986.36;;;0.59;100
75089;BME280;63673;49.928;8.150;2022-11-20T02:28:56;986.36;;;0.6;100
75089;BME280;63673;49.928;8.150;2022-11-20T02:29:57;986.38;;;0.59;100
75089;BME280;63673;49.928;8.150;2022-11-20T02:30:59;986.34;;;0.59;100
75089;BME280;63673;49.928;8.150;2022-11-20T02:32:01;986.33;;;0.6;100
75089;BME280;63673;49.928;8.150;2022-11-20T02:33:02;986.37;;;0.6;100
75089;BME280;63673;49.928;8.150;2022-11-20T02:34:04;986.31;;;0.6;100
75089;BME280;63673;49.928;8.150;2022-11-20T02:35:06;986.26;;;0.59;100
75089;BME280;63673;49.928;8.150;2022-11-20T02:36:08;986.24;;;0.6;100
75089;BME280;63673;49.928;8.150;2022-11-20T02:37:09;986.24;;;0.59;100
75089;BME280;63673;49.928;8.150;2022-11-20T02:38:11;986.24;;;0.6;100
75089;BME280;63673;49.928;8.150;2022-11-20T02:39:13;986.28;;;0.6;100
75089;BME280;63673;49.928;8.150;2022-11-20T02:40:15;986.38;;;0.6;100
75089;BME280;63673;49.928;8.150;2022-11-20T02:41:16;986.31;;;0.6;100
75089;BME280;63673;49.928;8.150;2022-11-20T02:42:18;986.36;;;0.61;100
75089;BME280;63673;49.928;8.150;2022-11-20T02:43:20;986.28;;;0.61;100
75089;BME280;63673;49.928;8.150;2022-11-20T02:44:21;986.33;;;0.62;100
75089;BME280;63673;49.928;8.150;2022-11-20T02:45:24;986.32;;;0.62;100
75089;BME280;63673;49.928;8.150;2022-11-20T02:46:25;986.3;;;0.65;100
75089;BME280;63673;49.928;8.150;2022-11-20T02:47:27;986.34;;;0.65;100
75089;BME280;63673;49.928;8.150;2022-11-20T02:48:28;986.33;;;0.66;100
75089;BME280;63673;49.928;8.150;2022-11-20T02:49:30;986.34;;;0.66;100
75089;BME280;63673;49.928;8.150;2022-11-20T02:50:32;986.34;;;0.67;100
75089;BME280;63673;49.928;8.150;2022-11-20T02:51:34;986.37;;;0.68;100
75089;BME280;63673;49.928;8.150;2022-11-20T02:52:35;986.31;;;0.69;100
75089;BME280;63673;49.928;8.150;2022-11-20T02:53:37;986.32;;;0.7;100
75089;BME280;63673;49.928;8.150;2022-11-20T02:54:39;986.3;;;0.7;100
75089;BME280;63673;49.928;8.150;2022-11-20T02:55:40;986.33;;;0.72;100
75089;BME280;63673;49.928;8.150;2022-11-20T02:56:43;986.35;;;0.71;100
75089;BME280;63673;49.928;8.150;2022-11-20T02:57:44;986.35;;;0.72;100
75089;BME280;63673;49.928;8.150;2022-11-20T02:58:46;986.38;;;0.73;100
75089;BME280;63673;49.928;8.150;2022-11-20T02:59:47;986.39;;;0.73;100
75089;BME280;63673;49.928;8.150;2022-11-20T03:00:49;986.39;;;0.74;100
75089;BME280;63673;49.928;8.150;2022-11-20T03:01:51;986.39;;;0.74;100
75089;BME280;63673;49.928;8.150;2022-11-20T03:02:53;986.36;;;0.74;100
75089;BME280;63673;49.928;8.150;2022-11-20T03:03:54;986.26;;;0.74;100
75089;BME280;63673;49.928;8.150;2022-11-20T03:04:56;986.31;;;0.74;100
75089;BME280;63673;49.928;8.150;2022-11-20T03:05:58;986.33;;;0.74;100
75089;BME280;63673;49.928;8.150;2022-11-20T03:07:00;986.4;;;0.74;100
75089;BME280;63673;49.928;8.150;2022-11-20T03:08:01;986.4;;;0.74;100
75089;BME280;63673;49.928;8.150;2022-11-20T03:09:03;986.37;;;0.73;100
75089;BME280;63673;49.928;8.150;2022-11-20T03:10:05;986.32;;;0.72;100
75089;BME280;63673;49.928;8.150;2022-11-20T03:11:07;986.34;;;0.73;100
75089;BME280;63673;49.928;8.150;2022-11-20T03:12:08;986.35;;;0.72;100
75089;BME280;63673;49.928;8.150;2022-11-20T03:13:10;986.28;;;0.71;100
75089;BME280;63673;49.928;8.150;2022-11-20T03:14:12;986.28;;;0.7;100
75089;BME280;63673;49.928;8.150;2022-11-20T03:15:13;986.26;;;0.69;100
75089;BME280;63673;49.928;8.150;2022-11-20T03:16:16;986.27;;;0.67;100
75089;BME280;63673;49.928;8.150;2022-11-20T03:17:17;986.19;;;0.67;100
75089;BME280;63673;49.928;8.150;2022-11-20T03:18:19;986.21;;;0.65;100
75089;BME280;63673;49.928;8.150;2022-11-20T03:19:20;986.24;;;0.65;100
75089;BME280;63673;49.928;8.150;2022-11-20T03:20:22;986.22;;;0.63;100
75089;BME280;63673;49.928;8.150;2022-11-20T03:21:24;986.22;;;0.62;100
75089;BME280;63673;49.928;8.150;2022-11-20T03:22:28;986.09;;;0.62;100
75089;BME280;63673;49.928;8.150;2022-11-20T03:23:28;986.07;;;0.61;100
75089;BME280;63673;49.928;8.150;2022-11-20T03:24:29;986.12;;;0.6;100
75089;BME280;63673;49.928;8.150;2022-11-20T03:25:31;986.17;;;0.59;100
75089;BME280;63673;49.928;8.150;2022-11-20T03:26:33;986.18;;;0.57;100
75089;BME280;63673;49.928;8.150;2022-11-20T03:27:34;986.21;;;0.58;100
75089;BME280;63673;49.928;8.150;2022-11-20T03:28:36;986.2;;;0.59;100
75089;BME280;63673;49.928;8.150;2022-11-20T03:29:38;986.2;;;0.58;100
75089;BME280;63673;49.928;8.150;2022-11-20T03:30:39;986.23;;;0.57;100
75089;BME280;63673;49.928;8.150;2022-11-20T03:31:41;986.18;;;0.58;100
75089;BME280;63673;49.928;8.150;2022-11-20T03:32:43;986.2;;;0.59;100
75089;BME280;63673;49.928;8.150;2022-11-20T03:33:45;986.27;;;0.58;100
75089;BME280;63673;49.928;8.150;2022-11-20T03:34:46;986.29;;;0.58;100
75089;BME280;63673;49.928;8.150;2022-11-20T03:35:48;986.31;;;0.59;100
75089;BME280;63673;49.928;8.150;2022-11-20T03:36:50;986.3;;;0.58;100
75089;BME280;63673;49.928;8.150;2022-11-20T03:37:52;986.24;;;0.59;100
75089;BME280;63673;49.928;8.150;2022-11-20T03:38:54;986.26;;;0.59;100
75089;BME280;63673;49.928;8.150;2022-11-20T03:39:55;986.26;;;0.59;100
75089;BME280;63673;49.928;8.150;2022-11-20T03:40:58;986.26;;;0.6;100
75089;BME280;63673;49.928;8.150;2022-11-20T03:41:58;986.24;;;0.59;100
75089;BME280;63673;49.928;8.150;2022-11-20T03:43:00;986.22;;;0.6;100
75089;BME280;63673;49.928;8.150;2022-11-20T03:44:03;986.25;;;0.61;100
75089;BME280;63673;49.928;8.150;2022-11-20T03:45:04;986.21;;;0.6;100
75089;BME280;63673;49.928;8.150;2022-11-20T03:46:06;986.24;;;0.6;100
75089;BME280;63673;49.928;8.150;2022-11-20T03:47:07;986.21;;;0.59;100
75089;BME280;63673;49.928;8.150;2022-11-20T03:48:09;986.2;;;0.59;100
75089;BME280;63673;49.928;8.150;2022-11-20T03:49:11;986.15;;;0.59;100
75089;BME280;63673;49.928;8.150;2022-11-20T03:50:13;986.17;;;0.59;100
75089;BME280;63673;49.928;8.150;2022-11-20T03:51:15;986.11;;;0.57;100
75089;BME280;63673;49.928;8.150;2022-11-20T03:52:16;986.13;;;0.57;100
75089;BME280;63673;49.928;8.150;2022-11-20T03:53:18;986.06;;;0.56;100
75089;BME280;63673;49.928;8.150;2022-11-20T03:54:19;986.13;;;0.56;100
75089;BME280;63673;49.928;8.150;2022-11-20T03:55:21;986.11;;;0.57;100
75089;BME280;63673;49.928;8.150;2022-11-20T03:56:25;986.17;;;0.57;100
75089;BME280;63673;49.928;8.150;2022-11-20T03:57:25;986.1;;;0.57;100
75089;BME280;63673;49.928;8.150;2022-11-20T03:58:26;986.15;;;0.57;100
75089;BME280;63673;49.928;8.150;2022-11-20T03:59:28;986.13;;;0.57;100
75089;BME280;63673;49.928;8.150;2022-11-20T04:00:30;986.15;;;0.57;100
75089;BME280;63673;49.928;8.150;2022-11-20T04:01:33;986.09;;;0.58;100
75089;BME280;63673;49.928;8.150;2022-11-20T04:02:33;986.07;;;0.58;100
75089;BME280;63673;49.928;8.150;2022-11-20T04:03:35;986.02;;;0.58;100
75089;BME280;63673;49.928;8.150;2022-11-20T04:04:37;986.02;;;0.58;100
75089;BME280;63673;49.928;8.150;2022-11-20T04:05:38;986;;;0.58;100
75089;BME280;63673;49.928;8.150;2022-11-20T04:06:40;985.98;;;0.59;100
75089;BME280;63673;49.928;8.150;2022-11-20T04:07:42;985.9;;;0.59;100
75089;BME280;63673;49.928;8.150;2022-11-20T04:08:44;986.02;;;0.6;100
75089;BME280;63673;49.928;8.150;2022-11-20T04:09:45;986.06;;;0.6;100
75089;BME280;63673;49.928;8.150;2022-11-20T04:10:47;986.02;;;0.61;100
75089;BME280;63673;49.928;8.150;2022-11-20T04:11:49;985.99;;;0.6;100
75089;BME280;63673;49.928;8.150;2022-11-20T04:12:51;985.97;;;0.61;100
75089;BME280;63673;49.928;8.150;2022-11-20T04:13:53;985.99;;;0.61;100
75089;BME280;63673;49.928;8.150;2022-11-20T04:14:54;985.98;;;0.62;100
75089;BME280;63673;49.928;8.150;2022-11-20T04:15:56;985.95;;;0.62;100
75089;BME280;63673;49.928;8.150;2022-11-20T04:16:57;985.94;;;0.61;100
75089;BME280;63673;49.928;8.150;2022-11-20T04:17:59;985.92;;;0.61;100
75089;BME280;63673;49.928;8.150;2022-11-20T04:19:02;985.95;;;0.61;100
75089;BME280;63673;49.928;8.150;2022-11-20T04:20:03;986.01;;;0.61;100
75089;BME280;63673;49.928;8.150;2022-11-20T04:21:05;985.98;;;0.6;100
75089;BME280;63673;49.928;8.150;2022-11-20T04:22:06;986.04;;;0.61;100
75089;BME280;63673;49.928;8.150;2022-11-20T04:23:08;986.01;;;0.6;100
75089;BME280;63673;49.928;8.150;2022-11-20T04:24:10;986.02;;;0.62;100
75089;BME280;63673;49.928;8.150;2022-11-20T04:25:11;986.02;;;0.62;100
75089;BME280;63673;49.928;8.150;2022-11-20T04:26:13;986.05;;;0.62;100
75089;BME280;63673;49.928;8.150;2022-11-20T04:27:15;986.07;;;0.62;100
75089;BME280;63673;49.928;8.150;2022-11-20T04:28:16;986.08;;;0.63;100
75089;BME280;63673;49.928;8.150;2022-11-20T04:29:18;986.02;;;0.64;100
75089;BME280;63673;49.928;8.150;2022-11-20T04:30:20;986.04;;;0.63;100
75089;BME280;63673;49.928;8.150;2022-11-20T04:31:23;986.01;;;0.64;100
75089;BME280;63673;49.928;8.150;2022-11-20T04:32:23;986.08;;;0.64;100
75089;BME280;63673;49.928;8.150;2022-11-20T04:33:25;986.02;;;0.65;100
75089;BME280;63673;49.928;8.150;2022-11-20T04:34:27;986.01;;;0.64;100
75089;BME280;63673;49.928;8.150;2022-11-20T04:35:29;986.03;;;0.64;100
75089;BME280;63673;49.928;8.150;2022-11-20T04:36:30;986.01;;;0.64;100
75089;BME280;63673;49.928;8.150;2022-11-20T04:37:32;986;;;0.64;100
75089;BME280;63673;49.928;8.150;2022-11-20T04:38:34;985.98;;;0.65;100
75089;BME280;63673;49.928;8.150;2022-11-20T04:39:36;985.97;;;0.64;100
75089;BME280;63673;49.928;8.150;2022-11-20T04:40:37;985.96;;;0.64;100
75089;BME280;63673;49.928;8.150;2022-11-20T04:41:39;985.95;;;0.65;100
75089;BME280;63673;49.928;8.150;2022-11-20T04:42:41;985.97;;;0.64;100
75089;BME280;63673;49.928;8.150;2022-11-20T04:43:45;985.99;;;0.64;100
75089;BME280;63673;49.928;8.150;2022-11-20T04:44:44;986.05;;;0.64;100
75089;BME280;63673;49.928;8.150;2022-11-20T04:45:49;985.99;;;0.64;100
75089;BME280;63673;49.928;8.150;2022-11-20T04:46:48;985.98;;;0.64;100
75089;BME280;63673;49.928;8.150;2022-11-20T04:47:49;986.01;;;0.64;100
75089;BME280;63673;49.928;8.150;2022-11-20T04:48:51;986.01;;;0.64;100
75089;BME280;63673;49.928;8.150;2022-11-20T04:49:53;985.98;;;0.63;100
75089;BME280;63673;49.928;8.150;2022-11-20T04:50:55;985.79;;;0.65;100
75089;BME280;63673;49.928;8.150;2022-11-20T04:51:56;986;;;0.65;100
75089;BME280;63673;49.928;8.150;2022-11-20T04:52:58;985.94;;;0.66;100
75089;BME280;63673;49.928;8.150;2022-11-20T04:54:00;985.94;;;0.65;100
75089;BME280;63673;49.928;8.150;2022-11-20T04:55:02;985.92;;;0.66;100
75089;BME280;63673;49.928;8.150;2022-11-20T04:56:04;986.01;;;0.67;100
75089;BME280;63673;49.928;8.150;2022-11-20T04:57:05;985.96;;;0.66;100
75089;BME280;63673;49.928;8.150;2022-11-20T04:58:07;985.93;;;0.66;100
75089;BME280;63673;49.928;8.150;2022-11-20T04:59:09;985.92;;;0.69;100
75089;BME280;63673;49.928;8.150;2022-11-20T05:00:11;985.9;;;0.69;100
75089;BME280;63673;49.928;8.150;2022-11-20T05:01:13;985.92;;;0.7;100
75089;BME280;63673;49.928;8.150;2022-11-20T05:02:14;985.93;;;0.71;100
75089;BME280;63673;49.928;8.150;2022-11-20T05:03:15;985.94;;;0.71;100
75089;BME280;63673;49.928;8.150;2022-11-20T05:04:17;986;;;0.71;100
75089;BME280;63673;49.928;8.150;2022-11-20T05:05:19;985.95;;;0.71;100
75089;BME280;63673;49.928;8.150;2022-11-20T05:06:21;986.01;;;0.72;100
75089;BME280;63673;49.928;8.150;2022-11-20T05:07:22;985.99;;;0.71;100
75089;BME280;63673;49.928;8.150;2022-11-20T05:08:24;985.91;;;0.72;100
75089;BME280;63673;49.928;8.150;2022-11-20T05:09:26;985.93;;;0.71;100
75089;BME280;63673;49.928;8.150;2022-11-20T05:10:28;985.89;;;0.71;100
75089;BME280;63673;49.928;8.150;2022-11-20T05:11:31;985.92;;;0.71;100
75089;BME280;63673;49.928;8.150;2022-11-20T05:12:31;985.97;;;0.7;100
75089;BME280;63673;49.928;8.150;2022-11-20T05:13:33;986;;;0.71;100
75089;BME280;63673;49.928;8.150;2022-11-20T05:14:35;985.96;;;0.7;100
75089;BME280;63673;49.928;8.150;2022-11-20T05:15:36;985.96;;;0.7;100
75089;BME280;63673;49.928;8.150;2022-11-20T05:16:38;985.96;;;0.71;100
75089;BME280;63673;49.928;8.150;2022-11-20T05:17:40;985.96;;;0.7;100
75089;BME280;63673;49.928;8.150;2022-11-20T05:18:42;985.99;;;0.7;100
75089;BME280;63673;49.928;8.150;2022-11-20T05:19:43;985.98;;;0.71;100
75089;BME280;63673;49.928;8.150;2022-11-20T05:20:45;985.97;;;0.7;100
75089;BME280;63673;49.928;8.150;2022-11-20T05:21:47;985.99;;;0.7;100
75089;BME280;63673;49.928;8.150;2022-11-20T05:22:48;985.95;;;0.71;100
75089;BME280;63673;49.928;8.150;2022-11-20T05:23:50;985.99;;;0.71;100
75089;BME280;63673;49.928;8.150;2022-11-20T05:24:52;986.02;;;0.71;100
75089;BME280;63673;49.928;8.150;2022-11-20T05:25:54;986.02;;;0.72;100
75089;BME280;63673;49.928;8.150;2022-11-20T05:26:55;986.02;;;0.73;100
75089;BME280;63673;49.928;8.150;2022-11-20T05:27:57;985.98;;;0.74;100
75089;BME280;63673;49.928;8.150;2022-11-20T05:28:59;985.98;;;0.73;100
75089;BME280;63673;49.928;8.150;2022-11-20T05:30:01;985.94;;;0.73;100
75089;BME280;63673;49.928;8.150;2022-11-20T05:31:04;985.9;;;0.74;100
75089;BME280;63673;49.928;8.150;2022-11-20T05:32:04;985.83;;;0.76;100
75089;BME280;63673;49.928;8.150;2022-11-20T05:33:07;985.74;;;0.76;100
75089;BME280;63673;49.928;8.150;2022-11-20T05:34:07;985.77;;;0.77;100
75089;BME280;63673;49.928;8.150;2022-11-20T05:35:09;985.74;;;0.76;100
75089;BME280;63673;49.928;8.150;2022-11-20T05:36:12;985.78;;;0.76;100
75089;BME280;63673;49.928;8.150;2022-11-20T05:37:13;985.69;;;0.77;100
75089;BME280;63673;49.928;8.150;2022-11-20T05:38:15;985.79;;;0.78;100
75089;BME280;63673;49.928;8.150;2022-11-20T05:39:16;985.77;;;0.77;100
75089;BME280;63673;49.928;8.150;2022-11-20T05:40:18;985.81;;;0.78;100
75089;BME280;63673;49.928;8.150;2022-11-20T05:41:20;985.83;;;0.79;100
75089;BME280;63673;49.928;8.150;2022-11-20T05:42:21;985.77;;;0.8;100
75089;BME280;63673;49.928;8.150;2022-11-20T05:43:23;985.87;;;0.82;100
75089;BME280;63673;49.928;8.150;2022-11-20T05:44:25;985.87;;;0.82;100
75089;BME280;63673;49.928;8.150;2022-11-20T05:45:27;985.86;;;0.83;100
75089;BME280;63673;49.928;8.150;2022-11-20T05:46:28;985.9;;;0.85;100
75089;BME280;63673;49.928;8.150;2022-11-20T05:47:31;985.89;;;0.86;100
75089;BME280;63673;49.928;8.150;2022-11-20T05:48:32;985.91;;;0.86;100
75089;BME280;63673;49.928;8.150;2022-11-20T05:49:33;985.9;;;0.87;100
75089;BME280;63673;49.928;8.150;2022-11-20T05:50:35;985.85;;;0.89;100
75089;BME280;63673;49.928;8.150;2022-11-20T05:51:37;985.86;;;0.9;100
75089;BME280;63673;49.928;8.150;2022-11-20T05:52:39;985.83;;;0.9;100
75089;BME280;63673;49.928;8.150;2022-11-20T05:53:40;985.74;;;0.89;100